Bardolph, Illinois
Current Conditions -  °F | °C
As of 3:15 PM on Sunday 23 Nov 2014 (Local Time) from KMQB Reporting Station
Light Rain Light Rain  
Wind Chill: 52°   Ceiling: 500
Heat Index: 52°   Visibility: 4mi
Dew Point: 52°   Wind: 10mph
Humidity: 99%   Direction: 160°SSE
Pressure: 29.39"   Gusts: NA
Location:  40.5°N, 90.56°W
Report Text: KMQB 232115Z AUTO 16009KT 4SM -RA OVC005 11/11 A2939 RMK AO2 P0001 T01130112
Loading
Personal Weather Stations






























Interactive Weather Map New forecast layout! Learn more

10-Day Weather Forecast

Advertisements
Track Severe Weather on mobile